sensor_id;sensor_type;location;lat;lon;timestamp;pressure;altitude;pressure_sealevel;temperature;humidity
21182;BME280;10749;46.296;7.524;2023-01-29T00:00:50;95474.31;;;-0.11;46.10
21182;BME280;10749;46.296;7.524;2023-01-29T00:03:15;95481.19;;;-0.10;46.05
21182;BME280;10749;46.296;7.524;2023-01-29T00:05:41;95473.28;;;-0.08;46.05
21182;BME280;10749;46.296;7.524;2023-01-29T00:08:06;95481.00;;;-0.07;46.12
21182;BME280;10749;46.296;7.524;2023-01-29T00:10:31;95466.84;;;-0.03;46.12
21182;BME280;10749;46.296;7.524;2023-01-29T00:12:57;95465.16;;;-0.04;46.33
21182;BME280;10749;46.296;7.524;2023-01-29T00:15:22;95466.44;;;-0.09;46.30
21182;BME280;10749;46.296;7.524;2023-01-29T00:17:47;95458.50;;;-0.08;46.01
21182;BME280;10749;46.296;7.524;2023-01-29T00:20:13;95467.03;;;-0.18;46.25
21182;BME280;10749;46.296;7.524;2023-01-29T00:22:38;95471.59;;;-0.22;46.27
21182;BME280;10749;46.296;7.524;2023-01-29T00:25:04;95465.56;;;-0.22;46.25
21182;BME280;10749;46.296;7.524;2023-01-29T00:27:29;95475.31;;;-0.26;46.54
21182;BME280;10749;46.296;7.524;2023-01-29T00:29:54;95472.78;;;-0.40;46.61
21182;BME280;10749;46.296;7.524;2023-01-29T00:32:41;95471.44;;;-0.33;46.50
21182;BME280;10749;46.296;7.524;2023-01-29T00:35:07;95473.53;;;-0.38;46.33
21182;BME280;10749;46.296;7.524;2023-01-29T00:37:32;95472.13;;;-0.43;46.43
21182;BME280;10749;46.296;7.524;2023-01-29T00:39:57;95469.28;;;-0.53;46.57
21182;BME280;10749;46.296;7.524;2023-01-29T00:42:23;95466.69;;;-0.53;46.63
21182;BME280;10749;46.296;7.524;2023-01-29T00:45:08;95470.22;;;-0.54;46.69
21182;BME280;10749;46.296;7.524;2023-01-29T00:47:34;95459.63;;;-0.51;46.71
21182;BME280;10749;46.296;7.524;2023-01-29T00:50:08;95463.34;;;-0.55;46.90
21182;BME280;10749;46.296;7.524;2023-01-29T00:52:34;95453.34;;;-0.61;46.76
21182;BME280;10749;46.296;7.524;2023-01-29T00:55:01;95453.53;;;-0.64;46.86
21182;BME280;10749;46.296;7.524;2023-01-29T00:57:28;95446.50;;;-0.62;46.99
21182;BME280;10749;46.296;7.524;2023-01-29T00:59:54;95455.56;;;-0.55;46.85
21182;BME280;10749;46.296;7.524;2023-01-29T01:02:20;95448.47;;;-0.53;46.61
21182;BME280;10749;46.296;7.524;2023-01-29T01:05:05;95453.34;;;-0.61;46.59
21182;BME280;10749;46.296;7.524;2023-01-29T01:07:32;95450.00;;;-0.63;46.77
21182;BME280;10749;46.296;7.524;2023-01-29T01:09:57;95452.50;;;-0.62;46.45
21182;BME280;10749;46.296;7.524;2023-01-29T01:12:41;95453.16;;;-0.58;46.28
21182;BME280;10749;46.296;7.524;2023-01-29T01:15:07;95442.09;;;-0.62;46.49
21182;BME280;10749;46.296;7.524;2023-01-29T01:17:32;95459.50;;;-0.62;46.65
21182;BME280;10749;46.296;7.524;2023-01-29T01:19:58;95452.69;;;-0.65;46.85
21182;BME280;10749;46.296;7.524;2023-01-29T01:22:23;95450.00;;;-0.63;46.96
21182;BME280;10749;46.296;7.524;2023-01-29T01:24:48;95460.59;;;-0.66;46.98
21182;BME280;10749;46.296;7.524;2023-01-29T01:27:14;95460.59;;;-0.66;46.80
21182;BME280;10749;46.296;7.524;2023-01-29T01:29:40;95463.31;;;-0.68;46.99
21182;BME280;10749;46.296;7.524;2023-01-29T01:32:05;95469.50;;;-0.70;46.95
21182;BME280;10749;46.296;7.524;2023-01-29T01:34:31;95462.84;;;-0.74;46.99
21182;BME280;10749;46.296;7.524;2023-01-29T01:36:56;95473.22;;;-0.74;46.90
21182;BME280;10749;46.296;7.524;2023-01-29T01:39:22;95479.47;;;-0.77;47.09
21182;BME280;10749;46.296;7.524;2023-01-29T01:41:48;95469.50;;;-0.70;46.63
21182;BME280;10749;46.296;7.524;2023-01-29T01:47:19;95470.25;;;-0.68;47.07
21182;BME280;10749;46.296;7.524;2023-01-29T01:49:46;95469.34;;;-0.67;47.15
21182;BME280;10749;46.296;7.524;2023-01-29T01:52:13;95469.34;;;-0.67;47.06
21182;BME280;10749;46.296;7.524;2023-01-29T01:54:41;95476.84;;;-0.63;47.24
21182;BME280;10749;46.296;7.524;2023-01-29T01:57:15;95476.44;;;-0.57;47.33
21182;BME280;10749;46.296;7.524;2023-01-29T01:59:46;95475.31;;;-0.53;46.61
21182;BME280;10749;46.296;7.524;2023-01-29T02:02:13;95476.44;;;-0.57;46.34
21182;BME280;10749;46.296;7.524;2023-01-29T02:04:57;95481.59;;;-0.69;46.67
21182;BME280;10749;46.296;7.524;2023-01-29T02:07:43;95481.34;;;-0.79;46.99
21182;BME280;10749;46.296;7.524;2023-01-29T02:10:31;95467.88;;;-0.71;46.86
21182;BME280;10749;46.296;7.524;2023-01-29T02:13:02;95485.31;;;-0.73;46.83
21182;BME280;10749;46.296;7.524;2023-01-29T02:15:28;95483.00;;;-0.78;46.24
21182;BME280;10749;46.296;7.524;2023-01-29T02:17:53;95478.84;;;-0.80;46.40
21182;BME280;10749;46.296;7.524;2023-01-29T02:20:29;95482.91;;;-0.90;46.78
21182;BME280;10749;46.296;7.524;2023-01-29T02:23:33;95490.84;;;-0.92;46.85
21182;BME280;10749;46.296;7.524;2023-01-29T02:29:41;95494.06;;;-1.03;47.28
21182;BME280;10749;46.296;7.524;2023-01-29T02:40:29;95498.34;;;-1.02;47.33
21182;BME280;10749;46.296;7.524;2023-01-29T02:43:11;95496.66;;;-1.03;47.23
21182;BME280;10749;46.296;7.524;2023-01-29T02:46:04;95507.81;;;-1.01;47.18
21182;BME280;10749;46.296;7.524;2023-01-29T02:48:39;95499.47;;;-1.06;47.21
21182;BME280;10749;46.296;7.524;2023-01-29T02:51:12;95500.31;;;-1.05;47.45
21182;BME280;10749;46.296;7.524;2023-01-29T02:53:47;95501.22;;;-1.06;47.30
21182;BME280;10749;46.296;7.524;2023-01-29T02:56:19;95502.06;;;-1.06;46.95
21182;BME280;10749;46.296;7.524;2023-01-29T02:59:07;95506.53;;;-1.08;46.74
21182;BME280;10749;46.296;7.524;2023-01-29T03:01:41;95510.22;;;-1.12;46.66
21182;BME280;10749;46.296;7.524;2023-01-29T03:04:18;95518.19;;;-1.15;46.88
21182;BME280;10749;46.296;7.524;2023-01-29T03:06:50;95520.25;;;-1.20;46.90
21182;BME280;10749;46.296;7.524;2023-01-29T03:09:31;95517.47;;;-1.17;47.17
21182;BME280;10749;46.296;7.524;2023-01-29T03:12:04;95516.28;;;-1.25;47.40
21182;BME280;10749;46.296;7.524;2023-01-29T03:14:45;95523.03;;;-1.23;47.39
21182;BME280;10749;46.296;7.524;2023-01-29T03:17:36;95528.41;;;-1.26;47.51
21182;BME280;10749;46.296;7.524;2023-01-29T03:20:06;95531.94;;;-1.27;47.57
21182;BME280;10749;46.296;7.524;2023-01-29T03:22:35;95535.28;;;-1.25;47.30
21182;BME280;10749;46.296;7.524;2023-01-29T03:25:03;95531.22;;;-1.29;47.41
21182;BME280;10749;46.296;7.524;2023-01-29T03:27:57;95539.91;;;-1.30;47.58
21182;BME280;10749;46.296;7.524;2023-01-29T03:30:54;95535.84;;;-1.34;47.77
21182;BME280;10749;46.296;7.524;2023-01-29T03:33:48;95535.63;;;-1.31;47.47
21182;BME280;10749;46.296;7.524;2023-01-29T03:36:22;95531.81;;;-1.40;47.86
21182;BME280;10749;46.296;7.524;2023-01-29T03:38:50;95538.06;;;-1.42;47.67
21182;BME280;10749;46.296;7.524;2023-01-29T03:41:27;95541.56;;;-1.43;47.67
21182;BME280;10749;46.296;7.524;2023-01-29T03:44:08;95546.75;;;-1.43;47.72
21182;BME280;10749;46.296;7.524;2023-01-29T03:46:40;95547.94;;;-1.49;48.03
21182;BME280;10749;46.296;7.524;2023-01-29T03:52:24;95554.94;;;-1.49;47.23
21182;BME280;10749;46.296;7.524;2023-01-29T03:57:32;95555.81;;;-1.64;47.63
21182;BME280;10749;46.296;7.524;2023-01-29T04:00:15;95563.41;;;-1.61;47.55
21182;BME280;10749;46.296;7.524;2023-01-29T04:05:16;95561.44;;;-1.72;47.62
21182;BME280;10749;46.296;7.524;2023-01-29T04:07:44;95565.06;;;-1.74;47.83
21182;BME280;10749;46.296;7.524;2023-01-29T04:10:14;95565.44;;;-1.66;47.44
21182;BME280;10749;46.296;7.524;2023-01-29T04:12:45;95567.28;;;-1.68;47.29
21182;BME280;10749;46.296;7.524;2023-01-29T04:15:14;95568.97;;;-1.67;47.66
21182;BME280;10749;46.296;7.524;2023-01-29T04:17:42;95575.50;;;-1.76;47.77
21182;BME280;10749;46.296;7.524;2023-01-29T04:20:10;95570.00;;;-1.86;48.12
21182;BME280;10749;46.296;7.524;2023-01-29T04:22:37;95565.00;;;-1.89;48.05
21182;BME280;10749;46.296;7.524;2023-01-29T04:25:07;95563.16;;;-1.87;48.06
21182;BME280;10749;46.296;7.524;2023-01-29T04:30:58;95575.13;;;-1.84;48.16
21182;BME280;10749;46.296;7.524;2023-01-29T04:39:27;95577.53;;;-1.81;48.36
21182;BME280;10749;46.296;7.524;2023-01-29T04:45:15;95586.53;;;-1.87;48.78
21182;BME280;10749;46.296;7.524;2023-01-29T04:47:56;95577.91;;;-1.87;48.37
21182;BME280;10749;46.296;7.524;2023-01-29T04:50:37;95577.91;;;-1.87;48.46
21182;BME280;10749;46.296;7.524;2023-01-29T04:53:12;95573.88;;;-1.93;48.56
21182;BME280;10749;46.296;7.524;2023-01-29T04:55:44;95571.53;;;-1.97;48.66
21182;BME280;10749;46.296;7.524;2023-01-29T05:00:42;95579.53;;;-1.86;48.22
21182;BME280;10749;46.296;7.524;2023-01-29T05:03:11;95579.84;;;-1.91;48.37
21182;BME280;10749;46.296;7.524;2023-01-29T05:05:40;95576.41;;;-2.07;48.77
21182;BME280;10749;46.296;7.524;2023-01-29T05:08:07;95584.19;;;-2.07;48.59
21182;BME280;10749;46.296;7.524;2023-01-29T05:10:33;95581.25;;;-2.01;48.38
21182;BME280;10749;46.296;7.524;2023-01-29T05:13:01;95580.69;;;-2.06;48.57
21182;BME280;10749;46.296;7.524;2023-01-29T05:15:33;95582.13;;;-2.16;48.80
21182;BME280;10749;46.296;7.524;2023-01-29T05:17:59;95575.25;;;-2.17;48.73
21182;BME280;10749;46.296;7.524;2023-01-29T05:20:30;95575.00;;;-2.12;48.75
21182;BME280;10749;46.296;7.524;2023-01-29T05:22:56;95587.13;;;-2.13;48.80
21182;BME280;10749;46.296;7.524;2023-01-29T05:25:25;95578.59;;;-2.15;48.92
21182;BME280;10749;46.296;7.524;2023-01-29T05:27:51;95586.81;;;-2.22;48.96
21182;BME280;10749;46.296;7.524;2023-01-29T05:30:38;95585.88;;;-2.21;48.81
21182;BME280;10749;46.296;7.524;2023-01-29T05:33:09;95595.25;;;-2.19;49.00
21182;BME280;10749;46.296;7.524;2023-01-29T05:35:35;95597.84;;;-2.19;49.10
21182;BME280;10749;46.296;7.524;2023-01-29T05:38:01;95603.72;;;-2.15;49.15
21182;BME280;10749;46.296;7.524;2023-01-29T05:40:26;95602.88;;;-2.16;48.85
21182;BME280;10749;46.296;7.524;2023-01-29T05:42:51;95599.59;;;-2.19;49.10
21182;BME280;10749;46.296;7.524;2023-01-29T05:45:17;95603.88;;;-2.18;49.06
21182;BME280;10749;46.296;7.524;2023-01-29T05:47:44;95600.53;;;-2.20;49.26
21182;BME280;10749;46.296;7.524;2023-01-29T05:50:10;95603.28;;;-2.23;49.21
21182;BME280;10749;46.296;7.524;2023-01-29T05:52:35;95603.38;;;-2.25;49.36
21182;BME280;10749;46.296;7.524;2023-01-29T05:55:00;95603.22;;;-2.22;49.18
21182;BME280;10749;46.296;7.524;2023-01-29T05:57:26;95607.31;;;-2.18;49.14
21182;BME280;10749;46.296;7.524;2023-01-29T05:59:51;95614.34;;;-2.20;49.25
21182;BME280;10749;46.296;7.524;2023-01-29T06:02:16;95618.50;;;-2.17;49.35
21182;BME280;10749;46.296;7.524;2023-01-29T06:04:41;95609.06;;;-2.18;49.30
21182;BME280;10749;46.296;7.524;2023-01-29T06:07:07;95626.78;;;-2.11;48.72
21182;BME280;10749;46.296;7.524;2023-01-29T06:09:32;95627.31;;;-2.20;48.89
21182;BME280;10749;46.296;7.524;2023-01-29T06:11:57;95629.63;;;-2.31;49.52
21182;BME280;10749;46.296;7.524;2023-01-29T06:14:23;95627.97;;;-2.32;49.30
21182;BME280;10749;46.296;7.524;2023-01-29T06:16:48;95639.88;;;-2.28;49.32
21182;BME280;10749;46.296;7.524;2023-01-29T06:19:13;95648.56;;;-2.29;49.46
21182;BME280;10749;46.296;7.524;2023-01-29T06:21:38;95640.59;;;-2.26;49.50
21182;BME280;10749;46.296;7.524;2023-01-29T06:24:04;95636.91;;;-2.22;49.27
21182;BME280;10749;46.296;7.524;2023-01-29T06:26:29;95644.53;;;-2.19;49.25
21182;BME280;10749;46.296;7.524;2023-01-29T06:28:54;95644.69;;;-2.22;49.32
21182;BME280;10749;46.296;7.524;2023-01-29T06:31:20;95648.06;;;-2.20;49.39
21182;BME280;10749;46.296;7.524;2023-01-29T06:33:45;95647.88;;;-2.17;49.48
21182;BME280;10749;46.296;7.524;2023-01-29T06:36:10;95646.69;;;-2.27;49.83
21182;BME280;10749;46.296;7.524;2023-01-29T06:38:36;95662.25;;;-2.27;49.73
21182;BME280;10749;46.296;7.524;2023-01-29T06:41:11;95660.09;;;-2.19;49.21
21182;BME280;10749;46.296;7.524;2023-01-29T06:43:38;95663.09;;;-2.26;49.40
21182;BME280;10749;46.296;7.524;2023-01-29T06:46:06;95663.94;;;-2.26;49.56
21182;BME280;10749;46.296;7.524;2023-01-29T06:48:31;95671.53;;;-2.23;49.13
21182;BME280;10749;46.296;7.524;2023-01-29T06:51:01;95669.13;;;-2.26;48.85
21182;BME280;10749;46.296;7.524;2023-01-29T06:53:27;95671.13;;;-2.31;49.42
21182;BME280;10749;46.296;7.524;2023-01-29T06:55:52;95666.41;;;-2.40;49.44
21182;BME280;10749;46.296;7.524;2023-01-29T06:58:18;95675.13;;;-2.41;49.76
21182;BME280;10749;46.296;7.524;2023-01-29T07:00:44;95679.00;;;-2.33;49.57
21182;BME280;10749;46.296;7.524;2023-01-29T07:03:09;95677.97;;;-2.30;49.66
21182;BME280;10749;46.296;7.524;2023-01-29T07:05:35;95688.28;;;-2.28;49.64
21182;BME280;10749;46.296;7.524;2023-01-29T07:08:01;95692.28;;;-2.23;49.70
21182;BME280;10749;46.296;7.524;2023-01-29T07:10:26;95702.28;;;-2.15;49.63
21182;BME280;10749;46.296;7.524;2023-01-29T07:12:51;95696.25;;;-2.16;49.90
21182;BME280;10749;46.296;7.524;2023-01-29T07:15:17;95702.28;;;-2.15;49.86
21182;BME280;10749;46.296;7.524;2023-01-29T07:17:58;95705.44;;;-2.10;49.64
21182;BME280;10749;46.296;7.524;2023-01-29T07:20:25;95709.72;;;-2.09;49.80
21182;BME280;10749;46.296;7.524;2023-01-29T07:22:50;95707.97;;;-2.09;49.90
21182;BME280;10749;46.296;7.524;2023-01-29T07:25:16;95711.16;;;-2.04;49.90
21182;BME280;10749;46.296;7.524;2023-01-29T07:27:41;95712.00;;;-2.03;49.81
21182;BME280;10749;46.296;7.524;2023-01-29T07:30:07;95722.50;;;-2.06;49.71
21182;BME280;10749;46.296;7.524;2023-01-29T07:32:32;95731.13;;;-2.06;49.81
21182;BME280;10749;46.296;7.524;2023-01-29T07:34:57;95730.88;;;-2.01;49.89
21182;BME280;10749;46.296;7.524;2023-01-29T07:37:22;95733.41;;;-2.00;49.91
21182;BME280;10749;46.296;7.524;2023-01-29T07:39:48;95736.91;;;-2.01;50.06
21182;BME280;10749;46.296;7.524;2023-01-29T07:42:13;95742.03;;;-1.99;50.08
21182;BME280;10749;46.296;7.524;2023-01-29T07:44:38;95749.66;;;-1.96;50.14
21182;BME280;10749;46.296;7.524;2023-01-29T07:47:04;95747.47;;;-1.88;49.90
21182;BME280;10749;46.296;7.524;2023-01-29T07:49:29;95751.50;;;-1.82;49.57
21182;BME280;10749;46.296;7.524;2023-01-29T07:51:54;95757.84;;;-1.88;49.81
21182;BME280;10749;46.296;7.524;2023-01-29T07:54:20;95769.06;;;-1.88;49.73
21182;BME280;10749;46.296;7.524;2023-01-29T07:56:45;95768.22;;;-1.88;49.95
21182;BME280;10749;46.296;7.524;2023-01-29T07:59:10;95770.22;;;-1.93;50.07
21182;BME280;10749;46.296;7.524;2023-01-29T08:01:35;95777.59;;;-1.86;49.98
21182;BME280;10749;46.296;7.524;2023-01-29T08:04:01;95786.47;;;-1.90;50.11
21182;BME280;10749;46.296;7.524;2023-01-29T08:06:26;95786.72;;;-1.94;50.18
21182;BME280;10749;46.296;7.524;2023-01-29T08:08:51;95795.03;;;-1.88;49.66
21182;BME280;10749;46.296;7.524;2023-01-29T08:11:17;95795.25;;;-1.92;49.34
21182;BME280;10749;46.296;7.524;2023-01-29T08:13:43;95790.63;;;-2.03;49.72
21182;BME280;10749;46.296;7.524;2023-01-29T08:16:08;95789.09;;;-2.07;50.01
21182;BME280;10749;46.296;7.524;2023-01-29T08:18:35;95794.16;;;-2.04;50.08
21182;BME280;10749;46.296;7.524;2023-01-29T08:21:01;95795.44;;;-1.95;50.01
21182;BME280;10749;46.296;7.524;2023-01-29T08:23:26;95789.47;;;-1.97;49.89
21182;BME280;10749;46.296;7.524;2023-01-29T08:25:51;95787.22;;;-1.88;50.06
21182;BME280;10749;46.296;7.524;2023-01-29T08:28:17;95788.56;;;-1.80;50.22
21182;BME280;10749;46.296;7.524;2023-01-29T08:30:42;95794.00;;;-1.69;50.40
21182;BME280;10749;46.296;7.524;2023-01-29T08:33:08;95786.50;;;-1.58;50.28
21182;BME280;10749;46.296;7.524;2023-01-29T08:35:33;95788.66;;;-1.51;50.51
21182;BME280;10749;46.296;7.524;2023-01-29T08:38:03;95787.06;;;-1.37;50.31
21182;BME280;10749;46.296;7.524;2023-01-29T08:40:31;95793.84;;;-1.35;50.33
21182;BME280;10749;46.296;7.524;2023-01-29T08:42:58;95791.66;;;-1.27;50.41
21182;BME280;10749;46.296;7.524;2023-01-29T08:45:24;95789.25;;;-1.30;50.58
21182;BME280;10749;46.296;7.524;2023-01-29T08:47:49;95796.53;;;-1.21;50.46
21182;BME280;10749;46.296;7.524;2023-01-29T08:50:15;95797.00;;;-1.14;50.46
21182;BME280;10749;46.296;7.524;2023-01-29T08:52:41;95796.16;;;-1.15;50.55
21182;BME280;10749;46.296;7.524;2023-01-29T08:55:07;95792.13;;;-1.05;50.51
21182;BME280;10749;46.296;7.524;2023-01-29T08:57:33;95790.69;;;-0.95;50.52
21182;BME280;10749;46.296;7.524;2023-01-29T08:59:58;95785.22;;;-0.90;50.64
21182;BME280;10749;46.296;7.524;2023-01-29T09:02:23;95781.47;;;-0.70;50.66
21182;BME280;10749;46.296;7.524;2023-01-29T09:04:48;95775.13;;;-0.51;50.63
21182;BME280;10749;46.296;7.524;2023-01-29T09:07:14;95777.84;;;-0.38;50.71
21182;BME280;10749;46.296;7.524;2023-01-29T09:09:39;95771.91;;;-0.26;50.69
21182;BME280;10749;46.296;7.524;2023-01-29T09:12:04;95776.16;;;-0.25;50.50
21182;BME280;10749;46.296;7.524;2023-01-29T09:14:30;95772.34;;;-0.19;50.65
21182;BME280;10749;46.296;7.524;2023-01-29T09:16:56;95766.78;;;-0.13;50.48
21182;BME280;10749;46.296;7.524;2023-01-29T09:19:22;95765.03;;;-0.13;50.48
21182;BME280;10749;46.296;7.524;2023-01-29T09:21:47;95757.59;;;-0.05;50.45
21182;BME280;10749;46.296;7.524;2023-01-29T09:24:13;95759.59;;;0.05;50.62
21182;BME280;10749;46.296;7.524;2023-01-29T09:26:39;95759.88;;;0.14;50.66
21182;BME280;10749;46.296;7.524;2023-01-29T09:29:04;95755.69;;;0.26;50.58
21182;BME280;10749;46.296;7.524;2023-01-29T09:31:30;95755.47;;;0.43;50.52
21182;BME280;10749;46.296;7.524;2023-01-29T09:33:55;95756.03;;;0.48;50.76
21182;BME280;10749;46.296;7.524;2023-01-29T09:36:20;95752.63;;;0.60;50.77
21182;BME280;10749;46.296;7.524;2023-01-29T09:38:46;95747.06;;;0.66;50.61
21182;BME280;10749;46.296;7.524;2023-01-29T09:42:02;95741.22;;;0.75;50.65
21182;BME280;10749;46.296;7.524;2023-01-29T09:45:11;95747.22;;;0.90;50.64
21182;BME280;10749;46.296;7.524;2023-01-29T09:47:39;95739.25;;;1.06;50.46
21182;BME280;10749;46.296;7.524;2023-01-29T09:50:06;95741.03;;;1.18;50.47
21182;BME280;10749;46.296;7.524;2023-01-29T09:52:38;95743.88;;;1.15;50.48
21182;BME280;10749;46.296;7.524;2023-01-29T09:55:20;95734.69;;;1.22;50.36
21182;BME280;10749;46.296;7.524;2023-01-29T09:57:53;95735.50;;;1.10;50.43
21182;BME280;10749;46.296;7.524;2023-01-29T10:05:34;95726.53;;;1.14;50.33
21182;BME280;10749;46.296;7.524;2023-01-29T10:08:34;95727.78;;;1.21;50.11
21182;BME280;10749;46.296;7.524;2023-01-29T10:11:11;95721.56;;;1.23;49.79
21182;BME280;10749;46.296;7.524;2023-01-29T10:13:51;95717.38;;;1.33;50.06
21182;BME280;10749;46.296;7.524;2023-01-29T10:18:59;95712.63;;;1.65;50.30
21182;BME280;10749;46.296;7.524;2023-01-29T10:26:57;95693.75;;;2.11;50.45
21182;BME280;10749;46.296;7.524;2023-01-29T10:29:24;95691.63;;;2.16;50.43
21182;BME280;10749;46.296;7.524;2023-01-29T10:31:56;95682.91;;;2.04;50.08
21182;BME280;10749;46.296;7.524;2023-01-29T10:34:39;95679.56;;;2.15;50.09
21182;BME280;10749;46.296;7.524;2023-01-29T10:37:21;95684.31;;;2.21;50.26
21182;BME280;10749;46.296;7.524;2023-01-29T10:39:49;95674.66;;;2.34;50.53
21182;BME280;10749;46.296;7.524;2023-01-29T10:54:08;95655.53;;;3.16;50.01
21182;BME280;10749;46.296;7.524;2023-01-29T10:56:21;95650.84;;;3.43;50.25
21182;BME280;10749;46.296;7.524;2023-01-29T10:58:52;95645.84;;;3.62;50.16
21182;BME280;10749;46.296;7.524;2023-01-29T11:01:19;95647.53;;;3.75;50.00
21182;BME280;10749;46.296;7.524;2023-01-29T11:03:44;95635.84;;;3.79;49.70
21182;BME280;10749;46.296;7.524;2023-01-29T11:06:18;95629.31;;;3.84;49.88
21182;BME280;10749;46.296;7.524;2023-01-29T11:08:51;95630.34;;;4.15;50.14
21182;BME280;10749;46.296;7.524;2023-01-29T11:11:21;95624.41;;;4.13;49.86
21182;BME280;10749;46.296;7.524;2023-01-29T11:13:59;95621.03;;;4.33;49.99
21182;BME280;10749;46.296;7.524;2023-01-29T11:16:29;95622.75;;;4.55;49.92
21182;BME280;10749;46.296;7.524;2023-01-29T11:18:57;95615.69;;;4.67;50.02
21182;BME280;10749;46.296;7.524;2023-01-29T11:21:24;95616.78;;;4.85;49.95
21182;BME280;10749;46.296;7.524;2023-01-29T11:24:04;95613.09;;;5.08;50.22
21182;BME280;10749;46.296;7.524;2023-01-29T11:26:33;95617.06;;;5.44;50.37
21182;BME280;10749;46.296;7.524;2023-01-29T11:28:59;95609.63;;;5.49;50.00
21182;BME280;10749;46.296;7.524;2023-01-29T11:31:27;95599.34;;;5.67;50.20
21182;BME280;10749;46.296;7.524;2023-01-29T11:34:20;95608.84;;;5.88;49.88
21182;BME280;10749;46.296;7.524;2023-01-29T11:36:56;95603.13;;;6.14;50.16
21182;BME280;10749;46.296;7.524;2023-01-29T11:39:23;95599.47;;;6.45;49.96
21182;BME280;10749;46.296;7.524;2023-01-29T11:41:50;95611.00;;;6.54;49.74
21182;BME280;10749;46.296;7.524;2023-01-29T11:46:50;95604.06;;;6.62;49.51
21182;BME280;10749;46.296;7.524;2023-01-29T11:49:28;95607.66;;;6.61;48.76
21182;BME280;10749;46.296;7.524;2023-01-29T11:51:55;95602.38;;;6.52;49.01
21182;BME280;10749;46.296;7.524;2023-01-29T11:54:27;95612.66;;;6.64;49.22
21182;BME280;10749;46.296;7.524;2023-01-29T11:56:54;95609.00;;;6.46;48.86
21182;BME280;10749;46.296;7.524;2023-01-29T12:02:16;95622.53;;;6.22;48.85
21182;BME280;10749;46.296;7.524;2023-01-29T12:04:44;95620.50;;;6.35;48.70
21182;BME280;10749;46.296;7.524;2023-01-29T12:07:15;95614.03;;;6.49;48.49
21182;BME280;10749;46.296;7.524;2023-01-29T12:09:48;95619.69;;;6.64;48.18
21182;BME280;10749;46.296;7.524;2023-01-29T12:12:37;95620.66;;;6.63;48.36
21182;BME280;10749;46.296;7.524;2023-01-29T12:15:15;95617.59;;;6.38;47.78
21182;BME280;10749;46.296;7.524;2023-01-29T12:17:44;95618.25;;;6.31;47.58
21182;BME280;10749;46.296;7.524;2023-01-29T12:20:16;95616.41;;;6.62;47.74
21182;BME280;10749;46.296;7.524;2023-01-29T12:25:55;95610.13;;;6.43;47.23
21182;BME280;10749;46.296;7.524;2023-01-29T12:33:58;95611.13;;;6.62;47.07
21182;BME280;10749;46.296;7.524;2023-01-29T12:36:31;95608.22;;;6.65;46.61
21182;BME280;10749;46.296;7.524;2023-01-29T12:38:57;95605.16;;;6.60;45.97
21182;BME280;10749;46.296;7.524;2023-01-29T12:41:29;95599.50;;;6.64;46.22
21182;BME280;10749;46.296;7.524;2023-01-29T12:44:19;95611.25;;;6.60;45.91
21182;BME280;10749;46.296;7.524;2023-01-29T12:46:49;95599.06;;;6.49;45.81
21182;BME280;10749;46.296;7.524;2023-01-29T12:49:23;95598.78;;;6.53;45.68
21182;BME280;10749;46.296;7.524;2023-01-29T12:52:03;95596.16;;;6.43;45.78
21182;BME280;10749;46.296;7.524;2023-01-29T12:55:17;95585.22;;;6.67;46.01
21182;BME280;10749;46.296;7.524;2023-01-29T12:58:01;95586.31;;;6.55;46.04
21182;BME280;10749;46.296;7.524;2023-01-29T13:00:31;95581.38;;;6.71;46.28
21182;BME280;10749;46.296;7.524;2023-01-29T13:05:58;95582.97;;;7.29;46.31
21182;BME280;10749;46.296;7.524;2023-01-29T13:08:34;95581.28;;;7.38;46.06
21182;BME280;10749;46.296;7.524;2023-01-29T13:11:05;95577.44;;;7.32;45.79
21182;BME280;10749;46.296;7.524;2023-01-29T13:13:47;95572.59;;;7.28;46.13
21182;BME280;10749;46.296;7.524;2023-01-29T13:16:19;95578.34;;;7.51;46.30
21182;BME280;10749;46.296;7.524;2023-01-29T13:19:01;95578.63;;;7.84;46.20
21182;BME280;10749;46.296;7.524;2023-01-29T13:21:34;95567.47;;;8.00;45.71
21182;BME280;10749;46.296;7.524;2023-01-29T13:24:22;95564.25;;;8.06;45.96
21182;BME280;10749;46.296;7.524;2023-01-29T13:26:48;95563.75;;;7.93;45.47
21182;BME280;10749;46.296;7.524;2023-01-29T13:29:25;95559.56;;;7.73;45.41
21182;BME280;10749;46.296;7.524;2023-01-29T13:31:53;95560.94;;;7.77;45.92
21182;BME280;10749;46.296;7.524;2023-01-29T13:34:21;95564.56;;;8.21;46.28
21182;BME280;10749;46.296;7.524;2023-01-29T13:36:51;95563.94;;;8.37;45.79
21182;BME280;10749;46.296;7.524;2023-01-29T13:39:29;95558.03;;;8.25;45.53
21182;BME280;10749;46.296;7.524;2023-01-29T13:41:56;95554.09;;;8.11;45.17
21182;BME280;10749;46.296;7.524;2023-01-29T13:44:28;95551.66;;;8.00;45.14
21182;BME280;10749;46.296;7.524;2023-01-29T13:46:58;95559.75;;;7.89;45.01
21182;BME280;10749;46.296;7.524;2023-01-29T13:49:28;95562.03;;;7.74;44.98
21182;BME280;10749;46.296;7.524;2023-01-29T13:51:54;95561.25;;;7.64;45.34
21182;BME280;10749;46.296;7.524;2023-01-29T13:54:24;95562.50;;;7.60;45.08
21182;BME280;10749;46.296;7.524;2023-01-29T13:59:24;95553.03;;;7.21;45.25
21182;BME280;10749;46.296;7.524;2023-01-29T14:02:23;95557.22;;;7.04;45.23
21182;BME280;10749;46.296;7.524;2023-01-29T14:04:50;95552.00;;;6.94;45.29
21182;BME280;10749;46.296;7.524;2023-01-29T14:07:47;95542.31;;;6.76;45.41
21182;BME280;10749;46.296;7.524;2023-01-29T14:10:19;95554.22;;;6.61;45.39
21182;BME280;10749;46.296;7.524;2023-01-29T14:12:46;95546.22;;;6.62;45.31
21182;BME280;10749;46.296;7.524;2023-01-29T14:15:20;95549.94;;;6.60;44.96
21182;BME280;10749;46.296;7.524;2023-01-29T14:23:22;95544.81;;;6.48;44.90
21182;BME280;10749;46.296;7.524;2023-01-29T14:25:50;95558.63;;;6.50;44.69
21182;BME280;10749;46.296;7.524;2023-01-29T14:28:21;95555.31;;;6.39;44.73
21182;BME280;10749;46.296;7.524;2023-01-29T14:30:48;95560.16;;;6.34;44.75
21182;BME280;10749;46.296;7.524;2023-01-29T14:33:31;95551.28;;;6.25;44.37
21182;BME280;10749;46.296;7.524;2023-01-29T14:35:58;95552.25;;;6.24;44.47
21182;BME280;10749;46.296;7.524;2023-01-29T14:38:26;95564.53;;;6.14;44.24
21182;BME280;10749;46.296;7.524;2023-01-29T14:41:03;95570.88;;;6.02;44.08
21182;BME280;10749;46.296;7.524;2023-01-29T14:43:30;95570.84;;;5.92;44.23
21182;BME280;10749;46.296;7.524;2023-01-29T14:48:58;95573.34;;;5.94;44.05
21182;BME280;10749;46.296;7.524;2023-01-29T14:51:24;95579.56;;;5.93;44.01
21182;BME280;10749;46.296;7.524;2023-01-29T14:56:27;95580.56;;;6.01;44.03